createdAt,value
2022-11-12T00:03:06.679Z,25.15
2022-11-12T00:08:28.815Z,27.73
2022-11-12T00:13:50.692Z,24.90
2022-11-12T00:19:13.806Z,24.20
2022-11-12T00:24:35.535Z,26.35
2022-11-12T00:29:57.270Z,22.70
2022-11-12T00:35:20.279Z,26.60
2022-11-12T00:40:43.009Z,23.48
2022-11-12T00:46:05.358Z,24.48
2022-11-12T00:51:28.542Z,25.48
2022-11-12T00:56:50.730Z,27.02
2022-11-12T01:02:12.854Z,25.15
2022-11-12T01:07:36.148Z,22.98
2022-11-12T01:12:57.915Z,22.25
2022-11-12T01:18:19.670Z,21.55
2022-11-12T01:23:43.426Z,20.95
2022-11-12T01:29:05.855Z,21.65
2022-11-12T01:34:27.757Z,28.58
2022-11-12T01:39:51.130Z,27.27
2022-11-12T01:45:15.876Z,28.85
2022-11-12T01:50:44.846Z,29.63
2022-11-12T01:56:09.102Z,26.23
2022-11-12T02:01:31.618Z,26.15
2022-11-12T02:06:54.543Z,23.02
2022-11-12T02:12:31.690Z,23.40
2022-11-12T02:17:54.196Z,24.07
2022-11-12T02:23:17.443Z,30.02
2022-11-12T02:28:39.177Z,27.73
2022-11-12T02:34:00.991Z,27.33
2022-11-12T02:39:24.223Z,33.55
2022-11-12T02:44:45.996Z,27.62
2022-11-12T02:50:08.966Z,29.48
2022-11-12T02:55:32.104Z,35.85
2022-11-12T03:00:54.112Z,35.75
2022-11-12T03:06:16.281Z,33.10
2022-11-12T03:11:40.024Z,34.40
2022-11-12T03:17:01.763Z,29.23
2022-11-12T03:22:23.403Z,33.75
2022-11-12T03:27:46.527Z,32.97
2022-11-12T03:33:10.036Z,27.95
2022-11-12T03:38:31.967Z,26.12
2022-11-12T03:43:57.557Z,23.23
2022-11-12T03:49:19.289Z,25.67
2022-11-12T03:54:41.074Z,24.20
2022-11-12T04:00:05.052Z,24.45
2022-11-12T04:05:45.346Z,26.37
2022-11-12T04:11:10.302Z,25.92
2022-11-12T04:16:50.988Z,25.92
2022-11-12T04:22:13.170Z,25.65
2022-11-12T04:27:36.097Z,27.73
2022-11-12T04:32:59.486Z,24.70
2022-11-12T04:38:21.197Z,26.45
2022-11-12T04:44:00.471Z,27.52
2022-11-12T04:49:23.749Z,31.42
2022-11-12T04:54:45.542Z,29.58
2022-11-12T05:00:08.349Z,25.90
2022-11-12T05:05:33.982Z,27.30
2022-11-12T05:10:56.108Z,34.05
2022-11-12T05:16:17.871Z,34.20
2022-11-12T05:21:59.007Z,29.85
2022-11-12T05:27:22.347Z,31.92
2022-11-12T05:32:44.257Z,39.40
2022-11-12T05:38:07.429Z,32.95
2022-11-12T05:43:29.165Z,32.72
2022-11-12T05:48:50.853Z,25.65
2022-11-12T05:54:14.324Z,27.27
2022-11-12T05:59:36.377Z,28.00
2022-11-12T06:04:58.115Z,25.77
2022-11-12T06:10:21.259Z,24.75
2022-11-12T06:15:43.245Z,19.37
2022-11-12T06:21:26.824Z,21.75
2022-11-12T06:26:49.822Z,18.75
2022-11-12T06:32:11.521Z,21.27
2022-11-12T06:37:33.338Z,19.75
2022-11-12T06:42:59.341Z,21.98
2022-11-12T06:48:21.448Z,21.23
2022-11-12T06:53:42.991Z,19.83
2022-11-12T06:59:06.097Z,19.33
2022-11-12T07:04:27.799Z,18.77
2022-11-12T07:09:49.629Z,27.83
2022-11-12T07:15:13.141Z,18.80
2022-11-12T07:20:35.217Z,17.92
2022-11-12T07:25:58.633Z,22.15
2022-11-12T07:31:22.137Z,17.37
2022-11-12T07:36:44.204Z,18.12
2022-11-12T07:42:06.063Z,20.98
2022-11-12T07:47:29.334Z,20.17
2022-11-12T07:52:51.264Z,25.85
2022-11-12T07:58:13.136Z,19.02
2022-11-12T08:03:36.366Z,16.98
2022-11-12T08:08:59.993Z,18.30
2022-11-12T08:14:22.901Z,28.60
2022-11-12T08:19:46.285Z,22.50
2022-11-12T08:25:08.935Z,19.80
2022-11-12T08:30:31.335Z,22.00
2022-11-12T08:35:54.977Z,20.60
2022-11-12T08:41:17.679Z,15.60
2022-11-12T08:46:39.456Z,28.25
2022-11-12T08:52:02.819Z,22.73
2022-11-12T08:57:24.829Z,21.85
2022-11-12T09:02:46.680Z,14.70
2022-11-12T09:08:13.672Z,17.00
2022-11-12T09:13:35.929Z,19.35
2022-11-12T09:18:57.843Z,16.90
2022-11-12T09:24:20.963Z,21.35
2022-11-12T09:29:42.627Z,15.90
2022-11-12T09:35:05.068Z,12.35
2022-11-12T09:40:41.575Z,14.75
2022-11-12T09:46:27.350Z,12.77
2022-11-12T09:51:52.928Z,22.95
2022-11-12T09:57:16.355Z,14.80
2022-11-12T10:02:43.006Z,12.18
2022-11-12T10:08:21.441Z,14.75
2022-11-12T10:13:54.714Z,13.00
2022-11-12T10:19:43.026Z,10.90
2022-11-12T10:25:15.644Z,13.07
2022-11-12T10:30:38.916Z,15.82
2022-11-12T10:36:18.111Z,13.13
2022-11-12T10:41:39.975Z,15.50
2022-11-12T10:47:32.649Z,12.55
2022-11-12T10:52:57.783Z,12.95
2022-11-12T10:58:20.899Z,9.40
2022-11-12T11:03:52.314Z,10.00
2022-11-12T11:09:20.615Z,12.10
2022-11-12T11:14:44.554Z,13.55
2022-11-12T11:20:20.665Z,12.25
2022-11-12T11:25:44.267Z,12.30
2022-11-12T11:31:20.446Z,10.35
2022-11-12T11:36:54.166Z,7.85
2022-11-12T11:42:36.845Z,11.60
2022-11-12T11:48:07.540Z,11.77
2022-11-12T11:53:41.355Z,7.85
2022-11-12T11:59:17.768Z,11.23
2022-11-12T12:04:48.623Z,13.55
2022-11-12T12:10:34.748Z,8.27
2022-11-12T12:16:33.810Z,10.95
2022-11-12T12:21:59.667Z,10.60
2022-11-12T12:27:28.876Z,9.38
2022-11-12T12:32:56.811Z,16.20
2022-11-12T12:38:24.707Z,8.55
2022-11-12T12:43:53.502Z,8.15
2022-11-12T12:49:18.749Z,7.40
2022-11-12T12:54:56.873Z,8.07
2022-11-12T13:00:32.923Z,7.37
2022-11-12T13:06:07.927Z,6.32
2022-11-12T13:12:10.866Z,9.43
2022-11-12T13:17:49.122Z,9.75
2022-11-12T13:23:33.621Z,7.43
2022-11-12T13:29:37.821Z,6.55
2022-11-12T13:35:34.712Z,5.43
2022-11-12T13:41:05.839Z,6.87
2022-11-12T13:46:30.621Z,8.93
2022-11-12T13:51:56.677Z,14.32
2022-11-12T13:57:30.751Z,9.85
2022-11-12T14:02:56.374Z,11.55
2022-11-12T14:08:35.968Z,8.18
2022-11-12T14:14:05.543Z,9.55
2022-11-12T14:19:55.359Z,7.60
2022-11-12T14:25:22.180Z,10.05
2022-11-12T14:30:45.691Z,7.60
2022-11-12T14:36:14.560Z,11.80
2022-11-12T14:41:42.687Z,10.23
2022-11-12T14:47:05.260Z,9.45
2022-11-12T14:52:32.507Z,12.65
2022-11-12T14:57:58.762Z,8.57
2022-11-12T15:03:24.082Z,12.02
2022-11-12T15:08:57.540Z,9.13
2022-11-12T15:14:25.208Z,12.73
2022-11-12T15:19:47.270Z,12.90
2022-11-12T15:25:22.924Z,13.98
2022-11-12T15:31:01.678Z,14.65
2022-11-12T15:36:25.520Z,11.50
2022-11-12T15:41:47.702Z,11.63
2022-11-12T15:47:20.700Z,14.18
2022-11-12T15:52:42.902Z,10.50
2022-11-12T15:58:06.243Z,12.15
2022-11-12T16:03:31.362Z,13.23
2022-11-12T16:08:52.971Z,13.85
2022-11-12T16:14:15.504Z,17.55
2022-11-12T16:19:38.984Z,17.50
2022-11-12T16:25:00.730Z,22.80
2022-11-12T16:30:25.272Z,19.52
2022-11-12T16:35:48.830Z,20.73
2022-11-12T16:41:12.069Z,20.27
2022-11-12T16:46:40.210Z,25.67
2022-11-12T16:57:25.094Z,26.60
2022-11-12T17:02:52.097Z,23.65
2022-11-12T17:13:39.432Z,27.17
2022-11-12T17:19:02.708Z,23.35
2022-11-12T17:24:28.761Z,22.15
2022-11-12T17:29:50.685Z,18.40
2022-11-12T17:35:12.363Z,23.95
2022-11-12T17:40:35.415Z,19.85
2022-11-12T17:45:57.655Z,22.45
2022-11-12T17:51:21.522Z,25.77
2022-11-12T17:56:44.583Z,20.58
2022-11-12T18:02:06.460Z,21.23
2022-11-12T18:07:28.257Z,19.85
2022-11-12T18:12:52.620Z,30.23
2022-11-12T18:18:14.746Z,24.23
2022-11-12T18:23:37.995Z,26.83
2022-11-12T18:29:01.506Z,32.10
2022-11-12T18:34:23.366Z,104.63
2022-11-12T18:39:45.314Z,175.68
2022-11-12T18:45:10.002Z,180.40
2022-11-12T18:50:32.214Z,159.63
2022-11-12T18:55:54.186Z,144.18
2022-11-12T19:01:20.982Z,90.35
2022-11-12T19:06:43.188Z,80.97
2022-11-12T19:12:05.450Z,61.90
2022-11-12T19:17:31.135Z,64.90
2022-11-12T19:22:54.126Z,86.45
2022-11-12T19:28:16.198Z,73.78
2022-11-12T19:33:39.570Z,46.03
2022-11-12T19:39:02.613Z,52.22
2022-11-12T19:44:24.626Z,52.85
2022-11-12T19:49:47.785Z,46.50
2022-11-12T19:55:09.550Z,40.65
2022-11-12T20:00:31.367Z,31.58
2022-11-12T20:05:54.341Z,35.33
2022-11-12T20:11:18.339Z,33.25
2022-11-12T20:16:40.543Z,33.72
2022-11-12T20:22:03.608Z,31.60
2022-11-12T20:27:25.346Z,55.42
2022-11-12T20:32:47.409Z,87.57
2022-11-12T20:38:10.384Z,87.40
2022-11-12T20:43:32.692Z,91.03
2022-11-12T20:48:55.146Z,69.50
2022-11-12T20:54:18.444Z,63.38
2022-11-12T20:59:41.285Z,67.07
2022-11-12T21:05:03.506Z,52.55
2022-11-12T21:10:27.039Z,46.67
2022-11-12T21:15:49.144Z,54.10
2022-11-12T21:21:12.781Z,49.28
2022-11-12T21:26:35.962Z,53.72
2022-11-12T21:31:57.987Z,65.93
2022-11-12T21:37:20.080Z,56.78
2022-11-12T21:42:44.275Z,45.63
2022-11-12T21:48:06.657Z,34.55
2022-11-12T21:53:28.869Z,35.30
2022-11-12T21:58:53.186Z,29.85
2022-11-12T22:04:18.278Z,30.67
2022-11-12T22:09:40.502Z,28.73
2022-11-12T22:15:03.629Z,29.02
2022-11-12T22:20:25.758Z,36.60
2022-11-12T22:25:48.350Z,37.80
2022-11-12T22:31:13.975Z,31.45
2022-11-12T22:36:36.075Z,33.55
2022-11-12T22:41:58.140Z,30.75
2022-11-12T22:47:21.338Z,36.40
2022-11-12T22:52:48.826Z,37.55
2022-11-12T22:58:12.169Z,34.22
2022-11-12T23:03:36.264Z,41.28
2022-11-12T23:09:00.088Z,28.27
2022-11-12T23:14:22.088Z,25.40
2022-11-12T23:19:45.566Z,27.35
2022-11-12T23:25:08.651Z,21.90
2022-11-12T23:30:30.688Z,29.63
2022-11-12T23:35:53.926Z,25.02
2022-11-12T23:41:18.618Z,26.17
2022-11-12T23:46:40.224Z,27.48
2022-11-12T23:52:03.370Z,32.10
2022-11-12T23:57:25.189Z,30.23
